Parkville, Minnesota
Current Conditions -  °F | °C
As of 6:11 AM on Monday 20 Oct 2014 (Local Time) from KEVM Reporting Station
Broken Clouds Broken Clouds  
Wind Chill: 43°   Ceiling: 3500
Heat Index: 43°   Visibility: 10mi
Dew Point: 41°   Wind: 3mph
Humidity: 93%   Direction: 270°W
Pressure: 29.91"   Gusts: NA
Location:  47.4996°N, 92.6723°W
Report Text: KEVM 201111Z AUTO 27003KT 10SM SCT029 BKN035 06/05 A2991 RMK AO2
Loading
Personal Weather Stations






























Interactive Weather Map
Tropical Storm Tracking
New forecast layout! Learn more

10-Day Weather Forecast

Advertisements
Track Severe Weather on mobile